sensor_id;sensor_type;location;lat;lon;timestamp;P1;durP1;ratioP1;P2;durP2;ratioP2
71600;SDS011;59446;52.192;4.628;2022-09-09T00:00:19;1.42;;;0.85;;
71600;SDS011;59446;52.192;4.628;2022-09-09T00:08:22;1.17;;;0.60;;
71600;SDS011;59446;52.192;4.628;2022-09-09T00:10:56;1.33;;;0.70;;
71600;SDS011;59446;52.192;4.628;2022-09-09T00:13:46;0.95;;;0.68;;
71600;SDS011;59446;52.192;4.628;2022-09-09T00:16:16;1.67;;;0.67;;
71600;SDS011;59446;52.192;4.628;2022-09-09T00:18:56;0.68;;;0.50;;
71600;SDS011;59446;52.192;4.628;2022-09-09T00:21:36;0.85;;;0.60;;
71600;SDS011;59446;52.192;4.628;2022-09-09T00:25:09;0.83;;;0.60;;
71600;SDS011;59446;52.192;4.628;2022-09-09T00:32:38;2.30;;;0.70;;
71600;SDS011;59446;52.192;4.628;2022-09-09T00:37:45;1.10;;;0.70;;
71600;SDS011;59446;52.192;4.628;2022-09-09T00:46:00;1.00;;;0.70;;
71600;SDS011;59446;52.192;4.628;2022-09-09T00:48:46;1.00;;;0.70;;
71600;SDS011;59446;52.192;4.628;2022-09-09T00:56:56;0.60;;;0.50;;
71600;SDS011;59446;52.192;4.628;2022-09-09T01:02:15;0.80;;;0.68;;
71600;SDS011;59446;52.192;4.628;2022-09-09T01:04:55;1.30;;;0.70;;
71600;SDS011;59446;52.192;4.628;2022-09-09T01:07:29;1.42;;;0.60;;
71600;SDS011;59446;52.192;4.628;2022-09-09T01:09:57;0.65;;;0.50;;
71600;SDS011;59446;52.192;4.628;2022-09-09T01:14:56;0.60;;;0.60;;
71600;SDS011;59446;52.192;4.628;2022-09-09T01:17:40;0.85;;;0.63;;
71600;SDS011;59446;52.192;4.628;2022-09-09T01:23:19;1.10;;;0.70;;
71600;SDS011;59446;52.192;4.628;2022-09-09T01:28:45;1.30;;;0.60;;
71600;SDS011;59446;52.192;4.628;2022-09-09T01:31:23;0.60;;;0.60;;
71600;SDS011;59446;52.192;4.628;2022-09-09T01:33:53;0.80;;;0.60;;
71600;SDS011;59446;52.192;4.628;2022-09-09T01:36:33;0.88;;;0.60;;
71600;SDS011;59446;52.192;4.628;2022-09-09T01:39:09;1.03;;;0.60;;
71600;SDS011;59446;52.192;4.628;2022-09-09T01:41:35;1.80;;;0.65;;
71600;SDS011;59446;52.192;4.628;2022-09-09T01:44:00;0.60;;;0.50;;
71600;SDS011;59446;52.192;4.628;2022-09-09T01:46:27;1.15;;;0.57;;
71600;SDS011;59446;52.192;4.628;2022-09-09T01:48:55;0.70;;;0.52;;
71600;SDS011;59446;52.192;4.628;2022-09-09T01:51:22;0.90;;;0.60;;
71600;SDS011;59446;52.192;4.628;2022-09-09T01:53:48;1.08;;;0.60;;
71600;SDS011;59446;52.192;4.628;2022-09-09T02:04:44;1.47;;;0.60;;
71600;SDS011;59446;52.192;4.628;2022-09-09T02:09:44;1.30;;;0.60;;
71600;SDS011;59446;52.192;4.628;2022-09-09T02:12:16;0.75;;;0.60;;
71600;SDS011;59446;52.192;4.628;2022-09-09T02:14:50;1.37;;;0.70;;
71600;SDS011;59446;52.192;4.628;2022-09-09T02:17:26;0.82;;;0.60;;
71600;SDS011;59446;52.192;4.628;2022-09-09T02:19:58;0.60;;;0.50;;
71600;SDS011;59446;52.192;4.628;2022-09-09T02:22:28;1.07;;;0.60;;
71600;SDS011;59446;52.192;4.628;2022-09-09T02:24:59;1.13;;;0.70;;
71600;SDS011;59446;52.192;4.628;2022-09-09T02:27:25;1.48;;;0.70;;
71600;SDS011;59446;52.192;4.628;2022-09-09T02:29:51;0.93;;;0.70;;
71600;SDS011;59446;52.192;4.628;2022-09-09T02:32:19;0.93;;;0.60;;
71600;SDS011;59446;52.192;4.628;2022-09-09T02:34:49;0.77;;;0.50;;
71600;SDS011;59446;52.192;4.628;2022-09-09T02:37:19;1.25;;;0.55;;
71600;SDS011;59446;52.192;4.628;2022-09-09T02:39:47;0.60;;;0.60;;
71600;SDS011;59446;52.192;4.628;2022-09-09T02:42:13;1.20;;;0.73;;
71600;SDS011;59446;52.192;4.628;2022-09-09T02:44:40;0.80;;;0.60;;
71600;SDS011;59446;52.192;4.628;2022-09-09T02:52:50;0.98;;;0.60;;
71600;SDS011;59446;52.192;4.628;2022-09-09T02:55:41;1.10;;;0.63;;
71600;SDS011;59446;52.192;4.628;2022-09-09T02:58:13;1.03;;;0.60;;
71600;SDS011;59446;52.192;4.628;2022-09-09T03:00:45;0.95;;;0.60;;
71600;SDS011;59446;52.192;4.628;2022-09-09T03:03:12;0.82;;;0.70;;
71600;SDS011;59446;52.192;4.628;2022-09-09T03:05:37;0.50;;;0.50;;
71600;SDS011;59446;52.192;4.628;2022-09-09T03:08:03;0.90;;;0.80;;
71600;SDS011;59446;52.192;4.628;2022-09-09T03:10:33;0.80;;;0.60;;
71600;SDS011;59446;52.192;4.628;2022-09-09T03:12:59;0.60;;;0.60;;
71600;SDS011;59446;52.192;4.628;2022-09-09T03:15:25;1.17;;;0.60;;
71600;SDS011;59446;52.192;4.628;2022-09-09T03:17:55;0.80;;;0.70;;
71600;SDS011;59446;52.192;4.628;2022-09-09T03:20:22;0.80;;;0.60;;
71600;SDS011;59446;52.192;4.628;2022-09-09T03:22:51;0.70;;;0.60;;
71600;SDS011;59446;52.192;4.628;2022-09-09T03:25:20;0.50;;;0.50;;
71600;SDS011;59446;52.192;4.628;2022-09-09T03:27:48;0.87;;;0.60;;
71600;SDS011;59446;52.192;4.628;2022-09-09T03:30:15;0.80;;;0.60;;
71600;SDS011;59446;52.192;4.628;2022-09-09T03:32:40;2.27;;;0.70;;
71600;SDS011;59446;52.192;4.628;2022-09-09T03:35:06;0.70;;;0.47;;
71600;SDS011;59446;52.192;4.628;2022-09-09T03:37:32;0.60;;;0.60;;
71600;SDS011;59446;52.192;4.628;2022-09-09T03:39:58;0.50;;;0.50;;
71600;SDS011;59446;52.192;4.628;2022-09-09T03:42:24;0.70;;;0.60;;
71600;SDS011;59446;52.192;4.628;2022-09-09T03:44:50;0.40;;;0.40;;
71600;SDS011;59446;52.192;4.628;2022-09-09T03:47:19;1.87;;;0.67;;
71600;SDS011;59446;52.192;4.628;2022-09-09T03:49:46;0.57;;;0.50;;
71600;SDS011;59446;52.192;4.628;2022-09-09T03:52:13;2.23;;;0.77;;
71600;SDS011;59446;52.192;4.628;2022-09-09T03:54:39;1.05;;;0.52;;
71600;SDS011;59446;52.192;4.628;2022-09-09T03:57:04;1.03;;;0.50;;
71600;SDS011;59446;52.192;4.628;2022-09-09T03:59:30;1.10;;;0.70;;
71600;SDS011;59446;52.192;4.628;2022-09-09T04:01:55;0.57;;;0.40;;
71600;SDS011;59446;52.192;4.628;2022-09-09T04:04:22;0.82;;;0.57;;
71600;SDS011;59446;52.192;4.628;2022-09-09T04:06:47;1.20;;;0.60;;
71600;SDS011;59446;52.192;4.628;2022-09-09T04:09:13;0.70;;;0.50;;
71600;SDS011;59446;52.192;4.628;2022-09-09T04:11:39;0.50;;;0.50;;
71600;SDS011;59446;52.192;4.628;2022-09-09T04:14:04;0.83;;;0.60;;
71600;SDS011;59446;52.192;4.628;2022-09-09T04:16:31;1.20;;;0.60;;
71600;SDS011;59446;52.192;4.628;2022-09-09T04:18:57;0.77;;;0.50;;
71600;SDS011;59446;52.192;4.628;2022-09-09T04:21:24;0.83;;;0.50;;
71600;SDS011;59446;52.192;4.628;2022-09-09T04:23:50;1.15;;;0.60;;
71600;SDS011;59446;52.192;4.628;2022-09-09T04:26:16;0.55;;;0.55;;
71600;SDS011;59446;52.192;4.628;2022-09-09T04:28:42;0.90;;;0.60;;
71600;SDS011;59446;52.192;4.628;2022-09-09T04:31:08;1.70;;;0.50;;
71600;SDS011;59446;52.192;4.628;2022-09-09T04:33:36;0.82;;;0.57;;
71600;SDS011;59446;52.192;4.628;2022-09-09T04:36:02;1.03;;;0.60;;
71600;SDS011;59446;52.192;4.628;2022-09-09T04:38:27;1.02;;;0.68;;
71600;SDS011;59446;52.192;4.628;2022-09-09T04:40:54;1.77;;;0.50;;
71600;SDS011;59446;52.192;4.628;2022-09-09T04:43:20;0.87;;;0.50;;
71600;SDS011;59446;52.192;4.628;2022-09-09T04:45:47;0.65;;;0.50;;
71600;SDS011;59446;52.192;4.628;2022-09-09T04:48:14;0.82;;;0.63;;
71600;SDS011;59446;52.192;4.628;2022-09-09T04:50:40;1.17;;;0.60;;
71600;SDS011;59446;52.192;4.628;2022-09-09T04:53:06;1.08;;;0.50;;
71600;SDS011;59446;52.192;4.628;2022-09-09T04:55:32;0.60;;;0.50;;
71600;SDS011;59446;52.192;4.628;2022-09-09T04:58:03;1.00;;;0.60;;
71600;SDS011;59446;52.192;4.628;2022-09-09T05:00:33;0.70;;;0.60;;
71600;SDS011;59446;52.192;4.628;2022-09-09T05:03:04;0.75;;;0.60;;
71600;SDS011;59446;52.192;4.628;2022-09-09T05:05:31;0.93;;;0.50;;
71600;SDS011;59446;52.192;4.628;2022-09-09T05:08:05;0.60;;;0.60;;
71600;SDS011;59446;52.192;4.628;2022-09-09T05:10:32;0.70;;;0.50;;
71600;SDS011;59446;52.192;4.628;2022-09-09T05:12:59;0.77;;;0.50;;
71600;SDS011;59446;52.192;4.628;2022-09-09T05:15:24;1.10;;;0.60;;
71600;SDS011;59446;52.192;4.628;2022-09-09T05:17:49;0.70;;;0.60;;
71600;SDS011;59446;52.192;4.628;2022-09-09T05:20:17;0.70;;;0.60;;
71600;SDS011;59446;52.192;4.628;2022-09-09T05:22:43;0.60;;;0.50;;
71600;SDS011;59446;52.192;4.628;2022-09-09T05:25:08;0.57;;;0.50;;
71600;SDS011;59446;52.192;4.628;2022-09-09T05:27:34;1.08;;;0.50;;
71600;SDS011;59446;52.192;4.628;2022-09-09T05:30:00;0.90;;;0.50;;
71600;SDS011;59446;52.192;4.628;2022-09-09T05:32:25;0.93;;;0.55;;
71600;SDS011;59446;52.192;4.628;2022-09-09T05:34:51;1.50;;;0.50;;
71600;SDS011;59446;52.192;4.628;2022-09-09T05:37:17;0.60;;;0.50;;
71600;SDS011;59446;52.192;4.628;2022-09-09T05:39:43;0.87;;;0.50;;
71600;SDS011;59446;52.192;4.628;2022-09-09T05:42:09;0.40;;;0.40;;
71600;SDS011;59446;52.192;4.628;2022-09-09T05:44:34;1.13;;;0.50;;
71600;SDS011;59446;52.192;4.628;2022-09-09T05:47:00;0.50;;;0.40;;
71600;SDS011;59446;52.192;4.628;2022-09-09T05:49:25;0.60;;;0.60;;
71600;SDS011;59446;52.192;4.628;2022-09-09T05:51:51;0.53;;;0.50;;
71600;SDS011;59446;52.192;4.628;2022-09-09T05:54:16;0.80;;;0.50;;
71600;SDS011;59446;52.192;4.628;2022-09-09T05:56:42;1.10;;;0.55;;
71600;SDS011;59446;52.192;4.628;2022-09-09T05:59:08;1.70;;;0.60;;
71600;SDS011;59446;52.192;4.628;2022-09-09T06:01:34;0.87;;;0.50;;
71600;SDS011;59446;52.192;4.628;2022-09-09T06:04:01;0.80;;;0.60;;
71600;SDS011;59446;52.192;4.628;2022-09-09T06:06:30;0.85;;;0.50;;
71600;SDS011;59446;52.192;4.628;2022-09-09T06:08:59;1.50;;;0.70;;
71600;SDS011;59446;52.192;4.628;2022-09-09T06:11:27;1.13;;;0.50;;
71600;SDS011;59446;52.192;4.628;2022-09-09T06:13:56;0.60;;;0.50;;
71600;SDS011;59446;52.192;4.628;2022-09-09T06:16:22;1.00;;;0.57;;
71600;SDS011;59446;52.192;4.628;2022-09-09T06:18:51;1.70;;;0.52;;
71600;SDS011;59446;52.192;4.628;2022-09-09T06:21:29;1.58;;;0.60;;
71600;SDS011;59446;52.192;4.628;2022-09-09T06:23:56;0.87;;;0.50;;
71600;SDS011;59446;52.192;4.628;2022-09-09T06:26:22;0.80;;;0.65;;
71600;SDS011;59446;52.192;4.628;2022-09-09T06:28:50;0.50;;;0.50;;
71600;SDS011;59446;52.192;4.628;2022-09-09T06:31:18;0.98;;;0.60;;
71600;SDS011;59446;52.192;4.628;2022-09-09T06:33:50;0.83;;;0.57;;
71600;SDS011;59446;52.192;4.628;2022-09-09T06:36:18;0.60;;;0.60;;
71600;SDS011;59446;52.192;4.628;2022-09-09T06:38:45;1.08;;;0.57;;
71600;SDS011;59446;52.192;4.628;2022-09-09T06:41:11;1.97;;;0.70;;
71600;SDS011;59446;52.192;4.628;2022-09-09T06:43:38;3.33;;;0.80;;
71600;SDS011;59446;52.192;4.628;2022-09-09T06:46:10;1.03;;;0.67;;
71600;SDS011;59446;52.192;4.628;2022-09-09T06:48:40;0.80;;;0.60;;
71600;SDS011;59446;52.192;4.628;2022-09-09T06:51:13;1.45;;;0.80;;
71600;SDS011;59446;52.192;4.628;2022-09-09T06:53:41;0.88;;;0.60;;
71600;SDS011;59446;52.192;4.628;2022-09-09T06:58:43;1.98;;;0.80;;
71600;SDS011;59446;52.192;4.628;2022-09-09T07:01:10;0.70;;;0.60;;
71600;SDS011;59446;52.192;4.628;2022-09-09T07:03:38;1.00;;;0.80;;
71600;SDS011;59446;52.192;4.628;2022-09-09T07:06:04;3.30;;;0.55;;
71600;SDS011;59446;52.192;4.628;2022-09-09T07:08:31;0.43;;;0.40;;
71600;SDS011;59446;52.192;4.628;2022-09-09T07:11:03;1.37;;;0.60;;
71600;SDS011;59446;52.192;4.628;2022-09-09T07:13:30;1.48;;;0.68;;
71600;SDS011;59446;52.192;4.628;2022-09-09T07:16:02;0.70;;;0.50;;
71600;SDS011;59446;52.192;4.628;2022-09-09T07:18:32;1.20;;;0.60;;
71600;SDS011;59446;52.192;4.628;2022-09-09T07:20:58;0.68;;;0.50;;
71600;SDS011;59446;52.192;4.628;2022-09-09T07:23:24;1.30;;;0.60;;
71600;SDS011;59446;52.192;4.628;2022-09-09T07:25:49;1.85;;;0.80;;
71600;SDS011;59446;52.192;4.628;2022-09-09T07:28:15;0.60;;;0.60;;
71600;SDS011;59446;52.192;4.628;2022-09-09T07:30:41;1.52;;;0.98;;
71600;SDS011;59446;52.192;4.628;2022-09-09T07:33:07;7.20;;;2.35;;
71600;SDS011;59446;52.192;4.628;2022-09-09T07:35:34;3.58;;;1.20;;
71600;SDS011;59446;52.192;4.628;2022-09-09T07:38:03;12.60;;;2.47;;
71600;SDS011;59446;52.192;4.628;2022-09-09T07:40:33;17.75;;;5.40;;
71600;SDS011;59446;52.192;4.628;2022-09-09T07:42:59;20.13;;;5.40;;
71600;SDS011;59446;52.192;4.628;2022-09-09T07:45:26;22.40;;;6.40;;
71600;SDS011;59446;52.192;4.628;2022-09-09T07:47:53;22.48;;;6.80;;
71600;SDS011;59446;52.192;4.628;2022-09-09T07:50:18;16.50;;;5.00;;
71600;SDS011;59446;52.192;4.628;2022-09-09T07:52:44;18.05;;;5.13;;
71600;SDS011;59446;52.192;4.628;2022-09-09T07:55:09;17.00;;;4.23;;
71600;SDS011;59446;52.192;4.628;2022-09-09T07:57:35;20.07;;;6.43;;
71600;SDS011;59446;52.192;4.628;2022-09-09T08:00:02;28.58;;;7.82;;
71600;SDS011;59446;52.192;4.628;2022-09-09T08:02:28;32.17;;;8.73;;
71600;SDS011;59446;52.192;4.628;2022-09-09T08:04:54;24.83;;;8.07;;
71600;SDS011;59446;52.192;4.628;2022-09-09T08:07:21;26.13;;;6.53;;
71600;SDS011;59446;52.192;4.628;2022-09-09T08:09:47;22.58;;;6.32;;
71600;SDS011;59446;52.192;4.628;2022-09-09T08:12:12;17.77;;;5.87;;
71600;SDS011;59446;52.192;4.628;2022-09-09T08:14:38;17.30;;;6.27;;
71600;SDS011;59446;52.192;4.628;2022-09-09T08:17:05;16.20;;;4.93;;
71600;SDS011;59446;52.192;4.628;2022-09-09T08:19:30;24.43;;;7.73;;
71600;SDS011;59446;52.192;4.628;2022-09-09T08:21:58;31.13;;;10.38;;
71600;SDS011;59446;52.192;4.628;2022-09-09T08:24:23;29.97;;;10.60;;
71600;SDS011;59446;52.192;4.628;2022-09-09T08:26:49;28.77;;;9.27;;
71600;SDS011;59446;52.192;4.628;2022-09-09T08:29:14;27.75;;;9.10;;
71600;SDS011;59446;52.192;4.628;2022-09-09T08:31:42;25.80;;;8.30;;
71600;SDS011;59446;52.192;4.628;2022-09-09T08:34:09;23.23;;;10.03;;
71600;SDS011;59446;52.192;4.628;2022-09-09T08:36:39;25.70;;;8.18;;
71600;SDS011;59446;52.192;4.628;2022-09-09T08:39:07;23.00;;;8.05;;
71600;SDS011;59446;52.192;4.628;2022-09-09T08:41:40;25.50;;;7.32;;
71600;SDS011;59446;52.192;4.628;2022-09-09T08:50:22;22.42;;;7.07;;
71600;SDS011;59446;52.192;4.628;2022-09-09T08:53:02;23.73;;;6.90;;
71600;SDS011;59446;52.192;4.628;2022-09-09T08:55:52;17.40;;;6.25;;
71600;SDS011;59446;52.192;4.628;2022-09-09T08:58:30;15.98;;;6.38;;
71600;SDS011;59446;52.192;4.628;2022-09-09T09:06:29;19.45;;;5.88;;
71600;SDS011;59446;52.192;4.628;2022-09-09T09:11:26;13.67;;;4.93;;
71600;SDS011;59446;52.192;4.628;2022-09-09T09:13:53;15.77;;;5.13;;
71600;SDS011;59446;52.192;4.628;2022-09-09T09:19:19;15.87;;;4.47;;
71600;SDS011;59446;52.192;4.628;2022-09-09T09:21:50;15.85;;;5.03;;
71600;SDS011;59446;52.192;4.628;2022-09-09T09:27:07;15.27;;;4.33;;
71600;SDS011;59446;52.192;4.628;2022-09-09T09:29:43;16.60;;;4.75;;
71600;SDS011;59446;52.192;4.628;2022-09-09T09:32:11;15.05;;;4.53;;
71600;SDS011;59446;52.192;4.628;2022-09-09T09:34:41;12.73;;;4.47;;
71600;SDS011;59446;52.192;4.628;2022-09-09T09:37:12;14.68;;;4.72;;
71600;SDS011;59446;52.192;4.628;2022-09-09T09:39:44;14.23;;;3.93;;
71600;SDS011;59446;52.192;4.628;2022-09-09T09:42:11;13.55;;;4.05;;
71600;SDS011;59446;52.192;4.628;2022-09-09T09:44:40;12.50;;;3.93;;
71600;SDS011;59446;52.192;4.628;2022-09-09T09:47:17;13.98;;;3.70;;
71600;SDS011;59446;52.192;4.628;2022-09-09T09:49:57;13.90;;;4.13;;
71600;SDS011;59446;52.192;4.628;2022-09-09T09:52:33;11.45;;;3.75;;
71600;SDS011;59446;52.192;4.628;2022-09-09T09:55:02;15.10;;;3.90;;
71600;SDS011;59446;52.192;4.628;2022-09-09T09:57:29;9.02;;;2.50;;
71600;SDS011;59446;52.192;4.628;2022-09-09T10:02:42;11.13;;;3.40;;
71600;SDS011;59446;52.192;4.628;2022-09-09T10:05:14;15.68;;;3.53;;
71600;SDS011;59446;52.192;4.628;2022-09-09T10:07:45;10.07;;;3.00;;
71600;SDS011;59446;52.192;4.628;2022-09-09T10:10:13;11.63;;;3.20;;
71600;SDS011;59446;52.192;4.628;2022-09-09T10:13:28;15.05;;;3.63;;
71600;SDS011;59446;52.192;4.628;2022-09-09T10:15:52;10.57;;;3.92;;
71600;SDS011;59446;52.192;4.628;2022-09-09T10:32:40;10.25;;;3.03;;
71600;SDS011;59446;52.192;4.628;2022-09-09T10:38:10;7.70;;;2.60;;
71600;SDS011;59446;52.192;4.628;2022-09-09T10:41:00;9.48;;;2.63;;
71600;SDS011;59446;52.192;4.628;2022-09-09T10:55:14;11.13;;;2.88;;
71600;SDS011;59446;52.192;4.628;2022-09-09T10:57:57;7.83;;;2.27;;
71600;SDS011;59446;52.192;4.628;2022-09-09T11:00:27;7.40;;;2.67;;
71600;SDS011;59446;52.192;4.628;2022-09-09T11:03:03;12.00;;;2.97;;
71600;SDS011;59446;52.192;4.628;2022-09-09T11:05:36;8.63;;;2.43;;
71600;SDS011;59446;52.192;4.628;2022-09-09T11:08:12;9.35;;;2.65;;
71600;SDS011;59446;52.192;4.628;2022-09-09T11:10:51;9.10;;;2.78;;
71600;SDS011;59446;52.192;4.628;2022-09-09T11:13:42;7.20;;;1.92;;
71600;SDS011;59446;52.192;4.628;2022-09-09T11:18:48;6.35;;;2.42;;
71600;SDS011;59446;52.192;4.628;2022-09-09T11:21:24;10.80;;;2.45;;
71600;SDS011;59446;52.192;4.628;2022-09-09T11:23:59;7.47;;;1.80;;
71600;SDS011;59446;52.192;4.628;2022-09-09T11:26:39;5.55;;;2.13;;
71600;SDS011;59446;52.192;4.628;2022-09-09T11:34:50;5.72;;;1.65;;
71600;SDS011;59446;52.192;4.628;2022-09-09T11:40:30;6.18;;;1.77;;
71600;SDS011;59446;52.192;4.628;2022-09-09T11:43:01;5.43;;;1.47;;
71600;SDS011;59446;52.192;4.628;2022-09-09T11:45:52;5.40;;;1.83;;
71600;SDS011;59446;52.192;4.628;2022-09-09T11:48:23;7.43;;;1.88;;
71600;SDS011;59446;52.192;4.628;2022-09-09T11:50:59;6.63;;;1.90;;
71600;SDS011;59446;52.192;4.628;2022-09-09T11:53:27;4.32;;;1.95;;
71600;SDS011;59446;52.192;4.628;2022-09-09T11:56:05;5.23;;;1.47;;
71600;SDS011;59446;52.192;4.628;2022-09-09T11:58:43;8.55;;;1.70;;
71600;SDS011;59446;52.192;4.628;2022-09-09T12:09:29;6.10;;;1.70;;
71600;SDS011;59446;52.192;4.628;2022-09-09T12:12:07;5.80;;;1.57;;
71600;SDS011;59446;52.192;4.628;2022-09-09T12:17:40;6.18;;;1.80;;
71600;SDS011;59446;52.192;4.628;2022-09-09T12:20:26;6.03;;;2.00;;
71600;SDS011;59446;52.192;4.628;2022-09-09T12:25:48;6.38;;;2.10;;
71600;SDS011;59446;52.192;4.628;2022-09-09T12:28:23;4.63;;;1.60;;
71600;SDS011;59446;52.192;4.628;2022-09-09T12:30:59;4.27;;;1.80;;
71600;SDS011;59446;52.192;4.628;2022-09-09T12:33:42;4.60;;;1.50;;
71600;SDS011;59446;52.192;4.628;2022-09-09T12:36:43;5.20;;;1.55;;
71600;SDS011;59446;52.192;4.628;2022-09-09T12:39:15;4.50;;;1.97;;
71600;SDS011;59446;52.192;4.628;2022-09-09T12:41:54;5.20;;;1.60;;
71600;SDS011;59446;52.192;4.628;2022-09-09T12:44:21;3.75;;;1.20;;
71600;SDS011;59446;52.192;4.628;2022-09-09T12:46:48;3.97;;;1.48;;
71600;SDS011;59446;52.192;4.628;2022-09-09T12:52:07;2.65;;;1.15;;
71600;SDS011;59446;52.192;4.628;2022-09-09T12:54:38;4.95;;;1.35;;
71600;SDS011;59446;52.192;4.628;2022-09-09T12:57:10;10.60;;;1.73;;
71600;SDS011;59446;52.192;4.628;2022-09-09T12:59:38;4.30;;;1.30;;
71600;SDS011;59446;52.192;4.628;2022-09-09T13:02:25;6.82;;;1.58;;
71600;SDS011;59446;52.192;4.628;2022-09-09T13:04:51;3.73;;;1.13;;
71600;SDS011;59446;52.192;4.628;2022-09-09T13:07:18;3.78;;;1.23;;
71600;SDS011;59446;52.192;4.628;2022-09-09T13:09:45;3.22;;;1.23;;
71600;SDS011;59446;52.192;4.628;2022-09-09T13:12:16;2.20;;;1.25;;
71600;SDS011;59446;52.192;4.628;2022-09-09T13:14:45;2.33;;;1.00;;
71600;SDS011;59446;52.192;4.628;2022-09-09T13:17:20;4.68;;;1.08;;
71600;SDS011;59446;52.192;4.628;2022-09-09T13:19:47;4.82;;;1.60;;
71600;SDS011;59446;52.192;4.628;2022-09-09T13:22:20;17.70;;;2.37;;
71600;SDS011;59446;52.192;4.628;2022-09-09T13:24:58;21.05;;;2.13;;
71600;SDS011;59446;52.192;4.628;2022-09-09T13:28:02;4.53;;;1.35;;
71600;SDS011;59446;52.192;4.628;2022-09-09T13:33:06;6.72;;;1.20;;
71600;SDS011;59446;52.192;4.628;2022-09-09T13:38:14;4.67;;;1.27;;
71600;SDS011;59446;52.192;4.628;2022-09-09T13:40:51;4.43;;;1.50;;
71600;SDS011;59446;52.192;4.628;2022-09-09T13:43:20;6.00;;;1.50;;
71600;SDS011;59446;52.192;4.628;2022-09-09T13:46:04;14.07;;;1.67;;
71600;SDS011;59446;52.192;4.628;2022-09-09T13:48:57;3.95;;;1.30;;
71600;SDS011;59446;52.192;4.628;2022-09-09T13:54:15;11.13;;;1.92;;
71600;SDS011;59446;52.192;4.628;2022-09-09T13:56:43;2.47;;;0.90;;
71600;SDS011;59446;52.192;4.628;2022-09-09T13:59:11;2.35;;;1.17;;
71600;SDS011;59446;52.192;4.628;2022-09-09T14:01:40;6.97;;;1.20;;
71600;SDS011;59446;52.192;4.628;2022-09-09T14:04:06;4.50;;;1.20;;
71600;SDS011;59446;52.192;4.628;2022-09-09T14:06:33;3.83;;;1.15;;
71600;SDS011;59446;52.192;4.628;2022-09-09T14:09:03;3.33;;;0.98;;
71600;SDS011;59446;52.192;4.628;2022-09-09T14:11:29;4.10;;;1.20;;
71600;SDS011;59446;52.192;4.628;2022-09-09T14:13:54;5.87;;;1.13;;
71600;SDS011;59446;52.192;4.628;2022-09-09T14:16:20;3.17;;;1.02;;
71600;SDS011;59446;52.192;4.628;2022-09-09T14:18:46;3.80;;;1.20;;
71600;SDS011;59446;52.192;4.628;2022-09-09T14:21:12;7.80;;;1.40;;
71600;SDS011;59446;52.192;4.628;2022-09-09T14:23:39;3.05;;;1.25;;
71600;SDS011;59446;52.192;4.628;2022-09-09T14:26:05;4.78;;;1.20;;
71600;SDS011;59446;52.192;4.628;2022-09-09T14:28:31;8.53;;;1.50;;
71600;SDS011;59446;52.192;4.628;2022-09-09T14:30:59;2.95;;;1.08;;
71600;SDS011;59446;52.192;4.628;2022-09-09T14:33:25;3.90;;;1.30;;
71600;SDS011;59446;52.192;4.628;2022-09-09T14:36:10;4.03;;;1.20;;
71600;SDS011;59446;52.192;4.628;2022-09-09T14:38:37;5.72;;;1.48;;
71600;SDS011;59446;52.192;4.628;2022-09-09T14:41:04;6.28;;;1.45;;
71600;SDS011;59446;52.192;4.628;2022-09-09T14:43:37;3.88;;;1.55;;
71600;SDS011;59446;52.192;4.628;2022-09-09T14:46:06;6.43;;;1.40;;
71600;SDS011;59446;52.192;4.628;2022-09-09T14:48:36;10.23;;;1.50;;
71600;SDS011;59446;52.192;4.628;2022-09-09T14:51:09;8.52;;;2.75;;
71600;SDS011;59446;52.192;4.628;2022-09-09T14:53:37;10.77;;;3.03;;
71600;SDS011;59446;52.192;4.628;2022-09-09T14:56:11;10.73;;;3.20;;
71600;SDS011;59446;52.192;4.628;2022-09-09T14:58:41;7.90;;;2.42;;
71600;SDS011;59446;52.192;4.628;2022-09-09T15:01:09;11.17;;;3.23;;
71600;SDS011;59446;52.192;4.628;2022-09-09T15:03:36;11.07;;;3.97;;
71600;SDS011;59446;52.192;4.628;2022-09-09T15:06:10;30.92;;;8.70;;
71600;SDS011;59446;52.192;4.628;2022-09-09T15:08:37;32.45;;;9.25;;
71600;SDS011;59446;52.192;4.628;2022-09-09T15:11:04;41.87;;;12.73;;
71600;SDS011;59446;52.192;4.628;2022-09-09T15:13:32;32.40;;;12.38;;
71600;SDS011;59446;52.192;4.628;2022-09-09T15:16:03;47.88;;;14.27;;
71600;SDS011;59446;52.192;4.628;2022-09-09T15:18:30;41.10;;;12.07;;
71600;SDS011;59446;52.192;4.628;2022-09-09T15:20:57;35.22;;;12.23;;
71600;SDS011;59446;52.192;4.628;2022-09-09T15:23:23;33.83;;;11.52;;
71600;SDS011;59446;52.192;4.628;2022-09-09T15:25:52;33.73;;;12.73;;
71600;SDS011;59446;52.192;4.628;2022-09-09T15:28:18;34.65;;;11.05;;
71600;SDS011;59446;52.192;4.628;2022-09-09T15:30:47;32.37;;;10.73;;
71600;SDS011;59446;52.192;4.628;2022-09-09T15:33:13;31.80;;;9.52;;
71600;SDS011;59446;52.192;4.628;2022-09-09T15:35:38;27.10;;;9.47;;
71600;SDS011;59446;52.192;4.628;2022-09-09T15:38:04;25.30;;;8.20;;
71600;SDS011;59446;52.192;4.628;2022-09-09T15:40:32;19.67;;;6.68;;
71600;SDS011;59446;52.192;4.628;2022-09-09T15:42:58;23.30;;;7.13;;
71600;SDS011;59446;52.192;4.628;2022-09-09T15:45:23;21.30;;;6.88;;
71600;SDS011;59446;52.192;4.628;2022-09-09T15:47:49;22.63;;;7.43;;
71600;SDS011;59446;52.192;4.628;2022-09-09T15:50:14;23.73;;;7.35;;
71600;SDS011;59446;52.192;4.628;2022-09-09T15:52:40;14.47;;;5.33;;
71600;SDS011;59446;52.192;4.628;2022-09-09T15:55:06;17.50;;;6.07;;
71600;SDS011;59446;52.192;4.628;2022-09-09T15:57:33;24.05;;;6.85;;
71600;SDS011;59446;52.192;4.628;2022-09-09T15:59:59;16.67;;;6.00;;
71600;SDS011;59446;52.192;4.628;2022-09-09T16:02:25;21.50;;;6.57;;
71600;SDS011;59446;52.192;4.628;2022-09-09T16:04:50;20.02;;;6.18;;
71600;SDS011;59446;52.192;4.628;2022-09-09T16:07:16;18.53;;;6.53;;
71600;SDS011;59446;52.192;4.628;2022-09-09T16:09:42;19.67;;;6.78;;
71600;SDS011;59446;52.192;4.628;2022-09-09T16:12:08;19.60;;;6.23;;
71600;SDS011;59446;52.192;4.628;2022-09-09T16:14:38;17.92;;;5.82;;
71600;SDS011;59446;52.192;4.628;2022-09-09T16:17:04;17.65;;;5.45;;
71600;SDS011;59446;52.192;4.628;2022-09-09T16:19:31;18.27;;;5.53;;
71600;SDS011;59446;52.192;4.628;2022-09-09T16:21:57;16.65;;;4.95;;
71600;SDS011;59446;52.192;4.628;2022-09-09T16:24:23;16.10;;;4.78;;
71600;SDS011;59446;52.192;4.628;2022-09-09T16:26:52;16.73;;;5.47;;
71600;SDS011;59446;52.192;4.628;2022-09-09T16:29:19;12.88;;;4.07;;
71600;SDS011;59446;52.192;4.628;2022-09-09T16:31:47;15.80;;;4.65;;
71600;SDS011;59446;52.192;4.628;2022-09-09T16:34:13;16.50;;;4.35;;
71600;SDS011;59446;52.192;4.628;2022-09-09T16:36:40;12.63;;;4.23;;
71600;SDS011;59446;52.192;4.628;2022-09-09T16:39:08;12.63;;;4.57;;
71600;SDS011;59446;52.192;4.628;2022-09-09T16:41:36;15.25;;;4.15;;
71600;SDS011;59446;52.192;4.628;2022-09-09T16:44:03;24.80;;;4.13;;
71600;SDS011;59446;52.192;4.628;2022-09-09T16:46:31;14.60;;;3.65;;
71600;SDS011;59446;52.192;4.628;2022-09-09T16:48:59;14.00;;;3.65;;
71600;SDS011;59446;52.192;4.628;2022-09-09T16:51:30;13.83;;;3.60;;
71600;SDS011;59446;52.192;4.628;2022-09-09T16:53:59;11.40;;;3.60;;
71600;SDS011;59446;52.192;4.628;2022-09-09T16:56:27;14.30;;;6.82;;
71600;SDS011;59446;52.192;4.628;2022-09-09T16:58:57;13.15;;;3.67;;
71600;SDS011;59446;52.192;4.628;2022-09-09T17:01:24;10.50;;;3.47;;
71600;SDS011;59446;52.192;4.628;2022-09-09T17:03:54;10.85;;;2.80;;
71600;SDS011;59446;52.192;4.628;2022-09-09T17:06:25;10.77;;;3.38;;
71600;SDS011;59446;52.192;4.628;2022-09-09T17:08:55;7.97;;;2.97;;
71600;SDS011;59446;52.192;4.628;2022-09-09T17:11:22;8.45;;;2.90;;
71600;SDS011;59446;52.192;4.628;2022-09-09T17:13:48;9.90;;;3.13;;
71600;SDS011;59446;52.192;4.628;2022-09-09T17:16:15;10.55;;;2.45;;
71600;SDS011;59446;52.192;4.628;2022-09-09T17:18:42;9.23;;;2.80;;
71600;SDS011;59446;52.192;4.628;2022-09-09T17:21:18;7.53;;;2.30;;